createdAt,value
2016-02-15T00:00:45.910Z,0
2016-02-15T00:01:45.865Z,0
2016-02-15T00:02:45.852Z,0
2016-02-15T00:03:45.808Z,0
2016-02-15T00:04:45.779Z,0
2016-02-15T00:05:45.750Z,0
2016-02-15T00:06:45.738Z,0
2016-02-15T00:07:45.693Z,0
2016-02-15T00:08:45.681Z,0
2016-02-15T00:09:45.621Z,0
2016-02-15T00:10:45.623Z,0
2016-02-15T00:11:45.564Z,0
2016-02-15T00:12:45.535Z,0
2016-02-15T00:13:45.522Z,0
2016-02-15T00:14:45.478Z,0
2016-02-15T00:15:45.450Z,0
2016-02-15T00:16:45.437Z,0
2016-02-15T00:17:45.392Z,0
2016-02-15T00:18:45.364Z,0
2016-02-15T00:19:45.335Z,0
2016-02-15T00:20:45.292Z,0
2016-02-15T00:21:45.263Z,0
2016-02-15T00:22:45.249Z,0
2016-02-15T00:23:45.205Z,0
2016-02-15T00:24:45.177Z,0
2016-02-15T00:25:45.164Z,0
2016-02-15T00:26:45.119Z,0
2016-02-15T00:27:45.091Z,0
2016-02-15T00:28:45.047Z,0
2016-02-15T00:29:45.049Z,0
2016-02-15T00:30:44.990Z,0
2016-02-15T00:31:44.977Z,0
2016-02-15T00:32:44.932Z,0
2016-02-15T00:33:44.921Z,0
2016-02-15T00:34:44.876Z,0
2016-02-15T00:35:44.846Z,0
2016-02-15T00:36:44.819Z,0
2016-02-15T00:37:44.774Z,0
2016-02-15T00:38:44.761Z,0
2016-02-15T00:39:44.717Z,0
2016-02-15T00:40:44.704Z,0
2016-02-15T00:41:44.660Z,0
2016-02-15T00:42:44.647Z,0
2016-02-15T00:43:44.603Z,0
2016-02-15T00:44:44.590Z,0
2016-02-15T00:45:44.546Z,0
2016-02-15T00:46:44.517Z,0
2016-02-15T00:47:44.503Z,0
2016-02-15T00:48:44.476Z,0
2016-02-15T00:49:44.431Z,0
2016-02-15T00:50:44.387Z,0
2016-02-15T00:51:44.359Z,0
2016-02-15T00:52:44.346Z,0
2016-02-15T00:53:44.317Z,0
2016-02-15T00:54:44.273Z,0
2016-02-15T00:55:44.244Z,0
2016-02-15T00:56:44.216Z,0
2016-02-15T00:57:44.188Z,0
2016-02-15T00:58:44.159Z,0
2016-02-15T00:59:44.146Z,0
2016-02-15T01:00:44.101Z,0
2016-02-15T01:01:44.074Z,0
2016-02-15T01:02:44.029Z,0
2016-02-15T01:03:44.015Z,0
2016-02-15T01:04:43.971Z,0
2016-02-15T01:05:43.943Z,0
2016-02-15T01:06:43.930Z,0
2016-02-15T01:07:43.871Z,0
2016-02-15T01:08:43.857Z,0
2016-02-15T01:09:43.813Z,0
2016-02-15T01:10:43.816Z,0
2016-02-15T01:11:43.772Z,0
2016-02-15T01:12:43.726Z,0
2016-02-15T01:13:43.703Z,0
2016-02-15T01:14:43.647Z,0
2016-02-15T01:15:43.608Z,0
2016-02-15T01:16:43.583Z,0
2016-02-15T01:17:43.528Z,0
2016-02-15T01:18:43.496Z,0
2016-02-15T01:19:43.463Z,0
2016-02-15T01:20:43.430Z,0
2016-02-15T01:21:43.382Z,0
2016-02-15T01:22:43.350Z,0
2016-02-15T01:23:43.319Z,0
2016-02-15T01:24:43.290Z,0
2016-02-15T01:25:43.259Z,0
2016-02-15T01:26:43.260Z,0
2016-02-15T01:27:43.199Z,0
2016-02-15T01:28:43.170Z,0
2016-02-15T01:29:43.141Z,0
2016-02-15T01:30:43.097Z,0
2016-02-15T01:31:43.083Z,0
2016-02-15T01:32:43.039Z,0
2016-02-15T01:33:43.041Z,0
2016-02-15T01:34:42.981Z,0
2016-02-15T01:35:42.969Z,0
2016-02-15T01:36:42.924Z,0
2016-02-15T01:37:42.911Z,0
2016-02-15T01:38:42.852Z,0
2016-02-15T01:39:42.823Z,0
2016-02-15T01:40:42.795Z,0
2016-02-15T01:41:42.767Z,0
2016-02-15T01:42:42.753Z,0
2016-02-15T01:43:42.709Z,0
2016-02-15T01:44:42.681Z,0
2016-02-15T01:45:42.652Z,0
2016-02-15T01:46:42.639Z,0
2016-02-15T01:47:42.595Z,0
2016-02-15T01:48:42.581Z,0
2016-02-15T01:49:42.539Z,0
2016-02-15T01:50:42.509Z,0
2016-02-15T01:51:42.464Z,0
2016-02-15T01:52:42.452Z,0
2016-02-15T01:53:42.252Z,0
2016-02-15T01:54:42.394Z,0
2016-02-15T01:55:42.350Z,0
2016-02-15T01:56:42.338Z,0
2016-02-15T01:57:42.293Z,0
2016-02-15T01:58:42.250Z,0
2016-02-15T01:59:42.252Z,0
2016-02-15T02:00:42.192Z,0
2016-02-15T02:01:42.180Z,0
2016-02-15T02:02:42.135Z,0
2016-02-15T02:03:42.121Z,0
2016-02-15T02:04:42.079Z,0
2016-02-15T02:05:42.065Z,0
2016-02-15T02:06:42.021Z,0
2016-02-15T02:07:42.008Z,0
2016-02-15T02:08:41.948Z,0
2016-02-15T02:09:41.935Z,0
2016-02-15T02:10:41.891Z,0
2016-02-15T02:11:41.878Z,0
2016-02-15T02:12:41.850Z,0
2016-02-15T02:13:41.806Z,0
2016-02-15T02:14:41.776Z,0
2016-02-15T02:15:41.764Z,0
2016-02-15T02:16:41.736Z,0
2016-02-15T02:17:41.675Z,0
2016-02-15T02:18:41.678Z,0
2016-02-15T02:19:41.634Z,0
2016-02-15T02:20:41.589Z,0
2016-02-15T02:21:41.577Z,0
2016-02-15T02:22:41.533Z,0
2016-02-15T02:23:41.505Z,0
2016-02-15T02:24:41.491Z,0
2016-02-15T02:25:41.447Z,0
2016-02-15T02:26:41.433Z,0
2016-02-15T02:27:41.391Z,0
2016-02-15T02:28:41.346Z,0
2016-02-15T02:29:41.332Z,0
2016-02-15T02:30:41.289Z,0
2016-02-15T02:31:41.276Z,0
2016-02-15T02:32:41.232Z,0
2016-02-15T02:33:41.218Z,0
2016-02-15T02:34:41.190Z,0
2016-02-15T02:35:41.146Z,0
2016-02-15T02:36:41.133Z,0
2016-02-15T02:37:41.088Z,0
2016-02-15T02:38:41.060Z,0
2016-02-15T02:39:41.032Z,0
2016-02-15T02:40:41.003Z,0
2016-02-15T02:41:40.959Z,0
2016-02-15T02:42:40.946Z,0
2016-02-15T02:43:40.901Z,0
2016-02-15T02:44:40.889Z,0
2016-02-15T02:45:40.845Z,0
2016-02-15T02:46:40.831Z,0
2016-02-15T02:47:40.787Z,0
2016-02-15T02:48:40.759Z,0
2016-02-15T02:49:40.715Z,0
2016-02-15T02:50:40.717Z,0
2016-02-15T02:51:40.658Z,0
2016-02-15T02:52:40.644Z,0
2016-02-15T02:53:40.460Z,0
2016-02-15T02:54:40.588Z,0
2016-02-15T02:55:40.543Z,0
2016-02-15T02:56:40.530Z,0
2016-02-15T02:57:40.486Z,0
2016-02-15T02:58:39.724Z,0
2016-02-15T02:59:40.429Z,0
2016-02-15T03:00:40.400Z,0
2016-02-15T03:01:40.388Z,0
2016-02-15T03:02:40.327Z,0
2016-02-15T03:03:40.315Z,0
2016-02-15T03:04:40.285Z,0
2016-02-15T03:05:40.258Z,0
2016-02-15T03:06:40.213Z,0
2016-02-15T03:07:40.185Z,0
2016-02-15T03:08:40.157Z,0
2016-02-15T03:09:40.143Z,0
2016-02-15T03:10:40.099Z,0
2016-02-15T03:11:40.071Z,0
2016-02-15T03:12:40.042Z,0
2016-02-15T03:13:39.842Z,0
2016-02-15T03:14:39.969Z,0
2016-02-15T03:15:39.941Z,0
2016-02-15T03:16:39.912Z,0
2016-02-15T03:17:39.884Z,0
2016-02-15T03:18:39.855Z,0
2016-02-15T03:19:39.826Z,0
2016-02-15T03:20:39.814Z,0
2016-02-15T03:21:39.613Z,0
2016-02-15T03:22:39.741Z,0
2016-02-15T03:23:39.744Z,0
2016-02-15T03:24:39.684Z,0
2016-02-15T03:25:39.639Z,0
2016-02-15T03:26:39.611Z,0
2016-02-15T03:27:39.567Z,0
2016-02-15T03:28:39.539Z,0
2016-02-15T03:29:39.510Z,0
2016-02-15T03:30:39.496Z,0
2016-02-15T03:31:39.328Z,0
2016-02-15T03:32:39.440Z,0
2016-02-15T03:33:39.427Z,0
2016-02-15T03:34:39.366Z,0
2016-02-15T03:35:39.338Z,0
2016-02-15T03:36:39.326Z,0
2016-02-15T03:37:39.281Z,0
2016-02-15T03:38:39.252Z,0
2016-02-15T03:39:39.224Z,0
2016-02-15T03:40:39.180Z,0
2016-02-15T03:41:39.151Z,0
2016-02-15T03:42:39.123Z,0
2016-02-15T03:43:38.954Z,0
2016-02-15T03:44:39.081Z,0
2016-02-15T03:45:39.037Z,0
2016-02-15T03:46:38.993Z,0
2016-02-15T03:47:38.980Z,0
2016-02-15T03:48:38.951Z,0
2016-02-15T03:49:38.923Z,0
2016-02-15T03:50:38.879Z,0
2016-02-15T03:51:38.850Z,0
2016-02-15T03:52:38.822Z,0
2016-02-15T03:53:38.793Z,0
2016-02-15T03:54:38.765Z,0
2016-02-15T03:55:38.720Z,0
2016-02-15T03:56:38.707Z,0
2016-02-15T03:57:38.678Z,0
2016-02-15T03:58:38.635Z,0
2016-02-15T03:59:38.606Z,0
2016-02-15T04:00:38.577Z,0
2016-02-15T04:01:38.549Z,0
2016-02-15T04:02:38.536Z,0
2016-02-15T04:03:38.492Z,0
2016-02-15T04:04:38.463Z,0
2016-02-15T04:05:38.434Z,0
2016-02-15T04:06:38.391Z,0
2016-02-15T04:07:38.377Z,0
2016-02-15T04:08:38.333Z,0
2016-02-15T04:09:38.321Z,0
2016-02-15T04:10:38.276Z,0
2016-02-15T04:11:38.248Z,0
2016-02-15T04:12:38.219Z,0
2016-02-15T04:13:38.175Z,0
2016-02-15T04:14:38.146Z,0
2016-02-15T04:15:38.118Z,0
2016-02-15T04:16:38.089Z,0
2016-02-15T04:17:38.076Z,0
2016-02-15T04:18:38.095Z,0
2016-02-15T04:19:38.003Z,0
2016-02-15T04:20:37.975Z,0
2016-02-15T04:21:37.947Z,0
2016-02-15T04:22:37.902Z,0
2016-02-15T04:23:37.873Z,0
2016-02-15T04:24:37.845Z,0
2016-02-15T04:25:37.816Z,0
2016-02-15T04:26:37.789Z,0
2016-02-15T04:27:37.759Z,0
2016-02-15T04:28:37.730Z,0
2016-02-15T04:29:37.703Z,0
2016-02-15T04:30:37.658Z,0
2016-02-15T04:31:37.644Z,0
2016-02-15T04:32:37.602Z,0
2016-02-15T04:33:37.588Z,0
2016-02-15T04:34:37.560Z,0
2016-02-15T04:35:37.515Z,0
2016-02-15T04:36:37.471Z,0
2016-02-15T04:37:37.442Z,0
2016-02-15T04:38:37.414Z,0
2016-02-15T04:39:37.385Z,0
2016-02-15T04:40:37.372Z,0
2016-02-15T04:41:37.329Z,0
2016-02-15T04:42:37.299Z,0
2016-02-15T04:43:37.271Z,0
2016-02-15T04:44:37.087Z,0
2016-02-15T04:45:37.214Z,0
2016-02-15T04:46:37.185Z,0
2016-02-15T04:47:37.142Z,0
2016-02-15T04:48:37.112Z,0
2016-02-15T04:49:37.084Z,0
2016-02-15T04:50:37.056Z,0
2016-02-15T04:51:37.027Z,0
2016-02-15T04:52:36.999Z,0
2016-02-15T04:53:36.954Z,0
2016-02-15T04:54:36.941Z,0
2016-02-15T04:55:36.914Z,0
2016-02-15T04:56:36.869Z,0
2016-02-15T04:57:36.839Z,0
2016-02-15T04:58:36.811Z,0
2016-02-15T04:59:36.767Z,0
2016-02-15T05:00:36.754Z,0
2016-02-15T05:01:36.711Z,0
2016-02-15T05:02:36.682Z,0
2016-02-15T05:03:36.652Z,0
2016-02-15T05:04:36.625Z,0
2016-02-15T05:05:36.611Z,0
2016-02-15T05:06:36.582Z,0
2016-02-15T05:07:36.414Z,0
2016-02-15T05:08:36.526Z,0
2016-02-15T05:09:36.482Z,0
2016-02-15T05:10:36.469Z,0
2016-02-15T05:11:36.425Z,0
2016-02-15T05:12:36.396Z,0
2016-02-15T05:13:36.352Z,0
2016-02-15T05:14:36.323Z,0
2016-02-15T05:15:36.295Z,0
2016-02-15T05:16:36.282Z,0
2016-02-15T05:17:36.237Z,0
2016-02-15T05:18:36.209Z,0
2016-02-15T05:19:36.165Z,0
2016-02-15T05:20:36.136Z,0
2016-02-15T05:21:36.108Z,0
2016-02-15T05:22:36.095Z,0
2016-02-15T05:23:36.097Z,0
2016-02-15T05:24:36.022Z,0
2016-02-15T05:25:35.978Z,0
2016-02-15T05:26:35.964Z,0
2016-02-15T05:27:35.921Z,0
2016-02-15T05:28:35.908Z,0
2016-02-15T05:29:35.863Z,0
2016-02-15T05:30:35.851Z,0
2016-02-15T05:31:35.806Z,0
2016-02-15T05:32:35.778Z,0
2016-02-15T05:33:35.733Z,0
2016-02-15T05:34:35.721Z,0
2016-02-15T05:35:35.692Z,0
2016-02-15T05:36:35.649Z,0
2016-02-15T05:37:35.619Z,0
2016-02-15T05:38:35.590Z,0
2016-02-15T05:39:35.563Z,0
2016-02-15T05:40:35.549Z,0
2016-02-15T05:41:35.489Z,0
2016-02-15T05:42:35.460Z,0
2016-02-15T05:43:35.432Z,0
2016-02-15T05:44:35.404Z,0
2016-02-15T05:45:35.360Z,0
2016-02-15T05:46:35.346Z,0
2016-02-15T05:47:35.318Z,0
2016-02-15T05:48:35.290Z,0
2016-02-15T05:49:35.245Z,0
2016-02-15T05:50:35.232Z,0
2016-02-15T05:51:35.173Z,0
2016-02-15T05:52:35.176Z,0
2016-02-15T05:53:35.115Z,0
2016-02-15T05:54:35.103Z,0
2016-02-15T05:55:35.059Z,0
2016-02-15T05:56:35.030Z,0
2016-02-15T05:57:35.001Z,0
2016-02-15T05:58:34.989Z,0
2016-02-15T05:59:34.944Z,0
2016-02-15T06:00:34.916Z,0
2016-02-15T06:01:34.871Z,0
2016-02-15T06:02:34.875Z,0
2016-02-15T06:03:34.814Z,0
2016-02-15T06:04:34.661Z,0
2016-02-15T06:05:34.757Z,0
2016-02-15T06:06:34.760Z,0
2016-02-15T06:07:34.685Z,0
2016-02-15T06:08:34.671Z,0
2016-02-15T06:09:34.487Z,0
2016-02-15T06:10:34.615Z,0
2016-02-15T06:11:34.571Z,0
2016-02-15T06:12:34.557Z,0
2016-02-15T06:13:34.513Z,0
2016-02-15T06:14:34.468Z,0
2016-02-15T06:15:34.457Z,0
2016-02-15T06:16:34.412Z,0
2016-02-15T06:17:34.492Z,0
2016-02-15T06:18:34.355Z,0
2016-02-15T06:19:34.310Z,4
2016-02-15T06:20:34.298Z,4
2016-02-15T06:21:34.253Z,4
2016-02-15T06:22:34.272Z,0
2016-02-15T06:23:34.196Z,0
2016-02-15T06:24:34.184Z,4
2016-02-15T06:25:34.139Z,4
2016-02-15T06:26:34.110Z,4
2016-02-15T06:27:34.082Z,4
2016-02-15T06:28:34.178Z,8
2016-02-15T06:29:34.025Z,4
2016-02-15T06:30:33.981Z,8
2016-02-15T06:31:33.967Z,8
2016-02-15T06:32:33.924Z,8
2016-02-15T06:33:33.895Z,12
2016-02-15T06:34:33.882Z,12
2016-02-15T06:35:33.838Z,16
2016-02-15T06:36:33.841Z,20
2016-02-15T06:37:33.765Z,20
2016-02-15T06:38:33.753Z,16
2016-02-15T06:39:33.708Z,20
2016-02-15T06:40:33.679Z,28
2016-02-15T06:41:33.652Z,32
2016-02-15T06:42:33.622Z,36
2016-02-15T06:43:33.593Z,48
2016-02-15T06:44:33.549Z,48
2016-02-15T06:45:33.521Z,60
2016-02-15T06:46:33.492Z,56
2016-02-15T06:47:33.480Z,64
2016-02-15T06:48:33.420Z,72
2016-02-15T06:49:33.406Z,76
2016-02-15T06:50:33.363Z,96
2016-02-15T06:51:33.334Z,92
2016-02-15T06:52:33.305Z,92
2016-02-15T06:53:33.293Z,112
2016-02-15T06:54:33.248Z,108
2016-02-15T06:55:33.236Z,128
2016-02-15T06:56:33.176Z,116
2016-02-15T06:57:33.162Z,152
2016-02-15T06:58:33.134Z,112
2016-02-15T06:59:33.106Z,132
2016-02-15T07:00:33.061Z,144
2016-02-15T07:01:33.048Z,156
2016-02-15T07:02:33.020Z,164
2016-02-15T07:03:32.975Z,152
2016-02-15T07:04:32.947Z,208
2016-02-15T07:05:32.919Z,244
2016-02-15T07:06:32.890Z,220
2016-02-15T07:07:32.861Z,288
2016-02-15T07:08:32.833Z,288
2016-02-15T07:09:32.788Z,356
2016-02-15T07:10:32.760Z,400
2016-02-15T07:11:32.732Z,376
2016-02-15T07:12:32.687Z,416
2016-02-15T07:13:32.722Z,432
2016-02-15T07:14:32.630Z,468
2016-02-15T07:15:32.476Z,468
2016-02-15T07:16:32.574Z,440
2016-02-15T07:17:32.576Z,532
2016-02-15T07:18:32.501Z,520
2016-02-15T07:19:32.471Z,520
2016-02-15T07:20:32.459Z,532
2016-02-15T07:21:32.431Z,520
2016-02-15T07:22:32.387Z,464
2016-02-15T07:23:32.358Z,532
2016-02-15T07:24:32.328Z,516
2016-02-15T07:25:32.301Z,520
2016-02-15T07:26:32.272Z,544
2016-02-15T07:27:32.242Z,600
2016-02-15T07:28:32.199Z,508
2016-02-15T07:29:32.186Z,544
2016-02-15T07:30:32.142Z,484
2016-02-15T07:31:32.129Z,532
2016-02-15T07:32:32.085Z,536
2016-02-15T07:33:32.072Z,604
2016-02-15T07:34:32.012Z,560
2016-02-15T07:35:31.983Z,600
2016-02-15T07:36:31.971Z,620
2016-02-15T07:37:31.927Z,708
2016-02-15T07:38:31.897Z,716
2016-02-15T07:39:31.870Z,716
2016-02-15T07:40:31.825Z,728
2016-02-15T07:41:31.813Z,780
2016-02-15T07:42:31.783Z,908
2016-02-15T07:43:31.755Z,852
2016-02-15T07:44:31.727Z,1012
2016-02-15T07:45:31.698Z,1004
2016-02-15T07:46:31.654Z,956
2016-02-15T07:47:31.640Z,884
2016-02-15T07:48:31.582Z,900
2016-02-15T07:49:31.568Z,824
2016-02-15T07:50:31.524Z,880
2016-02-15T07:51:31.495Z,996
2016-02-15T07:52:31.467Z,996
2016-02-15T07:53:31.454Z,1140
2016-02-15T07:54:31.409Z,1076
2016-02-15T07:55:31.412Z,1124
2016-02-15T07:56:31.353Z,1308
2016-02-15T07:57:31.309Z,1296
2016-02-15T07:58:31.295Z,1164
2016-02-15T07:59:31.251Z,1288
2016-02-15T08:00:31.239Z,1552
2016-02-15T08:01:31.194Z,1328
2016-02-15T08:02:31.181Z,1572
2016-02-15T08:03:31.122Z,1604
2016-02-15T08:04:31.109Z,1456
2016-02-15T08:05:31.064Z,1516
2016-02-15T08:06:31.067Z,1612
2016-02-15T08:07:31.147Z,1368
2016-02-15T08:08:30.978Z,1592
2016-02-15T08:09:30.966Z,1720
2016-02-15T08:10:30.921Z,1708
2016-02-15T08:11:30.893Z,1392
2016-02-15T08:12:30.864Z,1620
2016-02-15T08:13:30.680Z,1608
2016-02-15T08:14:30.839Z,1856
2016-02-15T08:15:30.763Z,1760
2016-02-15T08:16:30.781Z,1952
2016-02-15T08:17:30.707Z,1860
2016-02-15T08:18:30.662Z,1728
2016-02-15T08:19:30.649Z,1640
2016-02-15T08:20:30.620Z,1944
2016-02-15T08:21:30.592Z,1800
2016-02-15T08:22:30.548Z,2072
2016-02-15T08:23:30.519Z,2020
2016-02-15T08:24:30.490Z,1968
2016-02-15T08:25:30.461Z,2540
2016-02-15T08:26:30.449Z,2268
2016-02-15T08:27:30.389Z,2468
2016-02-15T08:28:30.360Z,2048
2016-02-15T08:29:30.332Z,2260
2016-02-15T08:30:30.319Z,2188
2016-02-15T08:31:30.290Z,2320
2016-02-15T08:32:30.246Z,2108
2016-02-15T08:33:30.217Z,2212
2016-02-15T08:34:30.189Z,2236
2016-02-15T08:35:30.161Z,1900
2016-02-15T08:36:30.148Z,2108
2016-02-15T08:37:30.088Z,2160
2016-02-15T08:38:30.074Z,2232
2016-02-15T08:39:30.030Z,2456
2016-02-15T08:40:30.003Z,2328
2016-02-15T08:41:29.974Z,2216
2016-02-15T08:42:29.960Z,2300
2016-02-15T08:43:29.995Z,2164
2016-02-15T08:44:29.888Z,2136
2016-02-15T08:45:29.844Z,2308
2016-02-15T08:46:29.955Z,2460
2016-02-15T08:47:29.787Z,2424
2016-02-15T08:48:29.757Z,2068
2016-02-15T08:49:29.730Z,2316
2016-02-15T08:50:29.748Z,2424
2016-02-15T08:51:29.672Z,2320
2016-02-15T08:52:29.629Z,2556
2016-02-15T08:53:29.599Z,2564
2016-02-15T08:54:29.586Z,2392
2016-02-15T08:55:29.543Z,2256
2016-02-15T08:56:29.514Z,2300
2016-02-15T08:57:29.485Z,2388
2016-02-15T08:58:29.457Z,2628
2016-02-15T08:59:29.428Z,3148
2016-02-15T09:00:29.384Z,3204
2016-02-15T09:01:29.371Z,3076
2016-02-15T09:02:29.327Z,3076
2016-02-15T09:03:29.345Z,3856
2016-02-15T09:04:29.394Z,3188
2016-02-15T09:05:29.226Z,3952
2016-02-15T09:06:29.213Z,3772
2016-02-15T09:07:29.184Z,3752
2016-02-15T09:08:29.139Z,3800
2016-02-15T09:09:29.111Z,3528
2016-02-15T09:10:29.083Z,3008
2016-02-15T09:11:29.054Z,3800
2016-02-15T09:12:29.041Z,3388
2016-02-15T09:13:28.997Z,3068
2016-02-15T09:14:28.953Z,5052
2016-02-15T09:15:28.975Z,4268
2016-02-15T09:16:28.900Z,4028
2016-02-15T09:17:28.871Z,4080
2016-02-15T09:18:28.842Z,4200
2016-02-15T09:19:28.845Z,4472
2016-02-15T09:20:28.786Z,4244
2016-02-15T09:21:28.772Z,4124
2016-02-15T09:22:28.728Z,4240
2016-02-15T09:23:28.700Z,5352
2016-02-15T09:24:28.827Z,4516
2016-02-15T09:25:28.642Z,4208
2016-02-15T09:26:28.630Z,4360
2016-02-15T09:27:28.585Z,3952
2016-02-15T09:28:28.541Z,3680
2016-02-15T09:29:28.528Z,4516
2016-02-15T09:30:28.484Z,4256
2016-02-15T09:31:28.471Z,4928
2016-02-15T09:32:28.427Z,4772
2016-02-15T09:33:28.398Z,5296
2016-02-15T09:34:28.370Z,5444
2016-02-15T09:35:28.326Z,5432
2016-02-15T09:36:28.313Z,4908
2016-02-15T09:37:28.284Z,5300
2016-02-15T09:38:28.240Z,5688
2016-02-15T09:39:28.226Z,5468
2016-02-15T09:40:28.182Z,4580
2016-02-15T09:41:28.170Z,4124
2016-02-15T09:42:28.110Z,4260
2016-02-15T09:43:28.097Z,2896
2016-02-15T09:44:28.069Z,3284
2016-02-15T09:45:28.040Z,2688
2016-02-15T09:46:28.011Z,2724
2016-02-15T09:47:27.952Z,2656
2016-02-15T09:48:27.954Z,2656
2016-02-15T09:49:27.910Z,2228
2016-02-15T09:50:27.882Z,2852
2016-02-15T09:51:27.837Z,2976
2016-02-15T09:52:27.809Z,2672
2016-02-15T09:53:27.781Z,2528
2016-02-15T09:54:27.752Z,2428
2016-02-15T09:55:27.739Z,2652
2016-02-15T09:56:27.679Z,2640
2016-02-15T09:57:27.650Z,3064
2016-02-15T09:58:27.638Z,2632
2016-02-15T09:59:27.608Z,3384
2016-02-15T10:00:27.566Z,2840
2016-02-15T10:01:27.536Z,2824
2016-02-15T10:02:27.524Z,2612
2016-02-15T10:03:27.479Z,2960
2016-02-15T10:04:27.435Z,3180
2016-02-15T10:05:27.422Z,2616
2016-02-15T10:06:27.377Z,2860
2016-02-15T10:07:27.365Z,3020
2016-02-15T10:08:27.383Z,2740
2016-02-15T10:09:27.293Z,2700
2016-02-15T10:10:27.279Z,2652
2016-02-15T10:11:27.235Z,3300
2016-02-15T10:12:27.190Z,3240
2016-02-15T10:13:27.178Z,4012
2016-02-15T10:14:27.133Z,4232
2016-02-15T10:15:27.121Z,4000
2016-02-15T10:16:27.076Z,3616
2016-02-15T10:17:27.126Z,4304
2016-02-15T10:18:27.018Z,3268
2016-02-15T10:19:26.976Z,3840
2016-02-15T10:20:26.934Z,3716
2016-02-15T10:21:26.893Z,3324
2016-02-15T10:22:26.866Z,3596
2016-02-15T10:23:26.811Z,3300
2016-02-15T10:24:26.762Z,3272
2016-02-15T10:25:26.745Z,3472
2016-02-15T10:26:26.696Z,4024
2016-02-15T10:27:26.662Z,4620
2016-02-15T10:28:26.630Z,4128
2016-02-15T10:29:26.631Z,4780
2016-02-15T10:30:26.553Z,3416
2016-02-15T10:31:26.538Z,3832
2016-02-15T10:32:26.492Z,4016
2016-02-15T10:33:26.462Z,3696
2016-02-15T10:34:26.495Z,3704
2016-02-15T10:35:26.403Z,3296
2016-02-15T10:36:26.375Z,3460
2016-02-15T10:37:26.346Z,3704
2016-02-15T10:38:26.332Z,3552
2016-02-15T10:39:26.273Z,3492
2016-02-15T10:40:26.259Z,4276
2016-02-15T10:41:26.215Z,3480
2016-02-15T10:42:26.186Z,3876
2016-02-15T10:43:26.157Z,3936
2016-02-15T10:44:26.128Z,3696
2016-02-15T10:45:26.099Z,4252
2016-02-15T10:46:26.071Z,4220
2016-02-15T10:47:26.027Z,3940
2016-02-15T10:48:26.013Z,3644
2016-02-15T10:49:25.986Z,3580
2016-02-15T10:50:25.957Z,4132
2016-02-15T10:51:25.928Z,3980
2016-02-15T10:52:25.900Z,4200
2016-02-15T10:53:25.871Z,4440
2016-02-15T10:54:25.858Z,4756
2016-02-15T10:55:25.799Z,4888
2016-02-15T10:56:25.785Z,5000
2016-02-15T10:57:25.726Z,5124
2016-02-15T10:58:26.120Z,5436
2016-02-15T10:59:25.668Z,5572
2016-02-15T11:00:25.640Z,5288
2016-02-15T11:01:25.642Z,5624
2016-02-15T11:02:25.583Z,5664
2016-02-15T11:03:25.664Z,6092
2016-02-15T11:04:25.525Z,6076
2016-02-15T11:05:25.498Z,6872
2016-02-15T11:06:25.469Z,7052
2016-02-15T11:07:25.439Z,7568
2016-02-15T11:08:25.428Z,6900
2016-02-15T11:09:25.383Z,6672
2016-02-15T11:10:25.354Z,7836
2016-02-15T11:11:25.311Z,6572
2016-02-15T11:12:25.422Z,6796
2016-02-15T11:13:25.253Z,6936
2016-02-15T11:14:25.241Z,5788
2016-02-15T11:15:25.180Z,6000
2016-02-15T11:16:25.183Z,5764
2016-02-15T11:17:25.138Z,6164
2016-02-15T11:18:24.969Z,6728
2016-02-15T11:19:24.957Z,6180
2016-02-15T11:20:25.053Z,6412
2016-02-15T11:21:25.010Z,6540
2016-02-15T11:22:24.980Z,6096
2016-02-15T11:23:24.982Z,5836
2016-02-15T11:24:24.924Z,7556
2016-02-15T11:25:24.895Z,7648
2016-02-15T11:26:24.881Z,8228
2016-02-15T11:27:24.838Z,8372
2016-02-15T11:28:24.809Z,6692
2016-02-15T11:29:25.406Z,6624
2016-02-15T11:30:24.768Z,7456
2016-02-15T11:31:24.754Z,6100
2016-02-15T11:32:24.695Z,7140
2016-02-15T11:33:24.650Z,7020
2016-02-15T11:34:24.622Z,6608
2016-02-15T11:35:24.609Z,6724
2016-02-15T11:36:24.564Z,7236
2016-02-15T11:37:24.537Z,7120
2016-02-15T11:38:24.352Z,7820
2016-02-15T11:39:24.479Z,8904
2016-02-15T11:40:24.450Z,8700
2016-02-15T11:41:24.438Z,8520
2016-02-15T11:42:24.394Z,8796
2016-02-15T11:43:24.349Z,9084
2016-02-15T11:44:24.321Z,8580
2016-02-15T11:45:24.308Z,8812
2016-02-15T11:46:24.264Z,8152
2016-02-15T11:47:24.235Z,8644
2016-02-15T11:48:24.207Z,8740
2016-02-15T11:49:24.163Z,7888
2016-02-15T11:50:24.165Z,7628
2016-02-15T11:51:24.105Z,7340
2016-02-15T11:52:24.093Z,7132
2016-02-15T11:53:24.063Z,6648
2016-02-15T11:54:24.035Z,7648
2016-02-15T11:55:23.991Z,7412
2016-02-15T11:56:23.978Z,6560
2016-02-15T11:57:23.934Z,5924
2016-02-15T11:58:23.921Z,6184
2016-02-15T11:59:23.876Z,5468
2016-02-15T12:00:23.848Z,5912
2016-02-15T12:01:23.820Z,6016
2016-02-15T12:02:23.792Z,6444
2016-02-15T12:03:23.778Z,6588
2016-02-15T12:04:23.718Z,7396
2016-02-15T12:05:23.706Z,7872
2016-02-15T12:06:23.677Z,7608
2016-02-15T12:07:23.648Z,7588
2016-02-15T12:08:23.448Z,8808
2016-02-15T12:09:23.591Z,10208
2016-02-15T12:10:23.563Z,10212
2016-02-15T12:11:23.534Z,9436
2016-02-15T12:12:23.489Z,9060
2016-02-15T12:13:23.477Z,9364
2016-02-15T12:14:23.433Z,9172
2016-02-15T12:15:23.420Z,8844
2016-02-15T12:16:23.375Z,9524
2016-02-15T12:17:23.332Z,8760
2016-02-15T12:18:23.303Z,8676
2016-02-15T12:19:23.291Z,7780
2016-02-15T12:20:23.261Z,6344
2016-02-15T12:21:23.233Z,5852
2016-02-15T12:22:23.205Z,6772
2016-02-15T12:23:23.160Z,6756
2016-02-15T12:24:23.147Z,5584
2016-02-15T12:25:23.104Z,5084
2016-02-15T12:26:23.090Z,4928
2016-02-15T12:27:23.046Z,4380
2016-02-15T12:28:23.064Z,4936
2016-02-15T12:29:22.989Z,5564
2016-02-15T12:30:22.945Z,6652
2016-02-15T12:31:22.931Z,7036
2016-02-15T12:32:22.887Z,6312
2016-02-15T12:33:22.937Z,6860
2016-02-15T12:34:23.361Z,7132
2016-02-15T12:35:22.817Z,7728
2016-02-15T12:36:22.773Z,8720
2016-02-15T12:37:22.745Z,8508
2016-02-15T12:38:22.716Z,6892
2016-02-15T12:39:22.687Z,6552
2016-02-15T12:40:22.659Z,6060
2016-02-15T12:41:22.646Z,5228
2016-02-15T12:42:22.603Z,4988
2016-02-15T12:43:22.558Z,4660
2016-02-15T12:44:22.561Z,4292
2016-02-15T12:45:22.500Z,4260
2016-02-15T12:46:22.503Z,4208
2016-02-15T12:47:22.443Z,4240
2016-02-15T12:48:22.415Z,4360
2016-02-15T12:49:22.386Z,4548
2016-02-15T12:50:22.374Z,4948
2016-02-15T12:51:22.563Z,4620
2016-02-15T12:52:22.316Z,4408
2016-02-15T12:53:22.272Z,4568
2016-02-15T12:54:22.259Z,4760
2016-02-15T12:55:22.199Z,5008
2016-02-15T12:56:22.202Z,5020
2016-02-15T12:57:22.158Z,5252
2016-02-15T12:58:22.129Z,5312
2016-02-15T12:59:22.100Z,5368
2016-02-15T13:00:22.057Z,5608
2016-02-15T13:01:22.028Z,5720
2016-02-15T13:02:21.998Z,5760
2016-02-15T13:03:21.971Z,6028
2016-02-15T13:04:21.942Z,6304
2016-02-15T13:05:21.914Z,6352
2016-02-15T13:06:21.870Z,6000
2016-02-15T13:07:21.856Z,6380
2016-02-15T13:08:21.812Z,6808
2016-02-15T13:09:21.800Z,7040
2016-02-15T13:10:21.927Z,7420
2016-02-15T13:11:21.727Z,7956
2016-02-15T13:12:21.714Z,7912
2016-02-15T13:13:21.670Z,7564
2016-02-15T13:14:21.641Z,7108
2016-02-15T13:15:21.612Z,6696
2016-02-15T13:16:21.850Z,6820
2016-02-15T13:17:21.571Z,6860
2016-02-15T13:18:21.510Z,6956
2016-02-15T13:19:21.499Z,7296
2016-02-15T13:20:21.454Z,7248
2016-02-15T13:21:21.425Z,7000
2016-02-15T13:22:21.413Z,7516
2016-02-15T13:23:21.368Z,7040
2016-02-15T13:24:21.340Z,6160
2016-02-15T13:25:21.311Z,6408
2016-02-15T13:26:21.298Z,6712
2016-02-15T13:27:21.254Z,6460
2016-02-15T13:28:21.241Z,6592
2016-02-15T13:29:21.197Z,6796
2016-02-15T13:30:21.184Z,7248
2016-02-15T13:31:21.124Z,7380
2016-02-15T13:32:21.111Z,6740
2016-02-15T13:33:21.082Z,6052
2016-02-15T13:34:21.053Z,5780
2016-02-15T13:35:21.025Z,5672
2016-02-15T13:36:20.982Z,5424
2016-02-15T13:37:20.968Z,5364
2016-02-15T13:38:20.908Z,5428
2016-02-15T13:39:20.896Z,5256
2016-02-15T13:40:20.867Z,5144
2016-02-15T13:41:20.822Z,5100
2016-02-15T13:42:20.795Z,4960
2016-02-15T13:43:20.781Z,4888
2016-02-15T13:44:20.753Z,4680
2016-02-15T13:45:20.709Z,4696
2016-02-15T13:46:20.696Z,5016
2016-02-15T13:47:20.652Z,4640
2016-02-15T13:48:20.622Z,4524
2016-02-15T13:49:20.594Z,4432
2016-02-15T13:50:20.566Z,4500
2016-02-15T13:51:20.521Z,4564
2016-02-15T13:52:20.494Z,4344
2016-02-15T13:53:20.465Z,4392
2016-02-15T13:54:20.467Z,4296
2016-02-15T13:55:20.408Z,4240
2016-02-15T13:56:20.379Z,4184
2016-02-15T13:57:20.350Z,4080
2016-02-15T13:58:20.338Z,3736
2016-02-15T13:59:20.293Z,3472
2016-02-15T14:00:20.265Z,3476